»·PEaware :: N5954W KEMT-KSMO

N5954W :: KEMT-KSMO

FLIGHT INFORMATION

Flight Status: Arrived
Operator: Privately registered:
United States
More flights under this callsign
Pilot: Joshua M. (19482)
Aircraft: ROBIN DR-400
(DR40)
More flights by this aircraft type
Origin: KEMT El Monte
United States
Destination: KSMO Santa Monica Mun
United States
More flights between these airports :: More routes between these airports
Route: +
File this flight plan on PilotEdge
Remarks:
Altitude:
(Current/Filed)
4,500ft
Speed:
(Current/Filed)
0kts
Departed: 03-Aug-18 07:32 PM
Arrived: 03-Aug-18 08:28 PM
Distance/Time
Traveled:
21nm/0:56
Distance/Time
To Go:
Arrived

Flight Plot

Page will automatically refresh every two minutes.


Map Options




Map Legend


Flown Route
Filed Route
Departure Airport
Arrival Airport
Navaid (VOR, NDB)
Fix

Horizontal Profiles

Position Reports

Time Latitude Longitude Heading Altitude Ground
Speed
03-Aug-18 19:27 34.087844 -118.032890 22 298ft 2kts
03-Aug-18 19:28 34.089104 -118.032440 24 298ft 10kts
03-Aug-18 19:29 34.090721 -118.031628 322 298ft 0kts
03-Aug-18 19:30 34.090721 -118.031628 322 298ft 0kts
03-Aug-18 19:31 34.090721 -118.031628 322 298ft 0kts
03-Aug-18 19:32 34.090752 -118.031668 306 298ft 1kts
03-Aug-18 19:33 34.087243 -118.034133 206 299ft 74kts
03-Aug-18 19:34 34.088230 -118.050318 300 767ft 97kts
03-Aug-18 19:35 34.099802 -118.070298 300 1146ft 107kts
03-Aug-18 19:36 34.112814 -118.093061 300 1798ft 105kts
03-Aug-18 19:37 34.125799 -118.116046 291 2436ft 105kts
03-Aug-18 19:38 34.130550 -118.143253 274 3085ft 104kts
03-Aug-18 19:39 34.133835 -118.172228 274 3502ft 121kts
03-Aug-18 19:40 34.130186 -118.203079 235 3502ft 130kts
03-Aug-18 19:41 34.119434 -118.229321 240 3499ft 131kts
03-Aug-18 19:42 34.107901 -118.255862 240 3499ft 132kts
03-Aug-18 19:43 34.094676 -118.285741 239 3499ft 132kts
03-Aug-18 19:44 34.084288 -118.310885 243 3228ft 123kts
03-Aug-18 19:45 34.076649 -118.331892 239 2846ft 88kts
03-Aug-18 19:46 34.069985 -118.349473 243 2441ft 75kts
03-Aug-18 19:47 34.064185 -118.365402 242 2038ft 82kts
03-Aug-18 19:48 34.057347 -118.383267 242 1467ft 100kts
03-Aug-18 19:49 34.049605 -118.402001 236 1112ft 77kts
03-Aug-18 19:50 34.042211 -118.414763 231 893ft 69kts
03-Aug-18 19:51 34.034521 -118.427003 232 761ft 67kts
03-Aug-18 19:52 34.026630 -118.438292 225 506ft 66kts
03-Aug-18 19:53 34.018363 -118.448214 224 175ft 54kts
03-Aug-18 19:54 34.007258 -118.460358 221 412ft 93kts
03-Aug-18 19:55 33.992584 -118.458695 125 932ft 101kts
03-Aug-18 19:56 33.998830 -118.436066 33 998ft 114kts
03-Aug-18 19:57 34.016235 -118.421411 33 992ft 97kts
03-Aug-18 19:58 34.029987 -118.425841 301 504ft 76kts
03-Aug-18 19:59 34.025988 -118.439193 225 394ft 68kts
03-Aug-18 20:00 34.017368 -118.449485 225 172ft 47kts
03-Aug-18 20:01 34.006804 -118.461269 219 421ft 87kts
03-Aug-18 20:02 33.992405 -118.448669 89 996ft 108kts
03-Aug-18 20:03 34.006736 -118.429855 35 1001ft 93kts
03-Aug-18 20:04 34.021027 -118.423062 344 774ft 76kts
03-Aug-18 20:05 34.030166 -118.434611 251 631ft 61kts
03-Aug-18 20:06 34.022234 -118.443656 223 313ft 61kts
03-Aug-18 20:07 34.013988 -118.453387 225 180ft 78kts
03-Aug-18 20:08 33.998327 -118.460677 146 846ft 92kts
03-Aug-18 20:09 33.999339 -118.435829 42 998ft 112kts
03-Aug-18 20:10 34.012565 -118.421023 42 989ft 77kts
03-Aug-18 20:11 34.025086 -118.414521 325 889ft 78kts
03-Aug-18 20:12 34.034237 -118.427664 238 658ft 66kts
03-Aug-18 20:13 34.027196 -118.437706 222 402ft 54kts
03-Aug-18 20:14 34.019686 -118.446698 225 203ft 54kts
03-Aug-18 20:15 34.009593 -118.457781 221 443ft 80kts
03-Aug-18 20:16 33.994440 -118.449370 110 769ft 95kts
03-Aug-18 20:17 34.004054 -118.430564 40 995ft 99kts
03-Aug-18 20:18 34.016370 -118.417615 38 976ft 76kts
03-Aug-18 20:19 34.029007 -118.420935 307 807ft 77kts
03-Aug-18 20:20 34.031462 -118.432919 229 542ft 52kts
03-Aug-18 20:21 34.024158 -118.441141 226 386ft 51kts
03-Aug-18 20:22 34.017171 -118.449582 224 174ft 52kts
03-Aug-18 20:23 34.002146 -118.458020 152 699ft 92kts
03-Aug-18 20:24 34.003182 -118.431811 44 1007ft 129kts
03-Aug-18 20:25 34.018771 -118.418091 352 918ft 76kts
03-Aug-18 20:26 34.030348 -118.429969 293 632ft 66kts
03-Aug-18 20:27 34.024957 -118.440523 222 416ft 60kts
03-Aug-18 20:28 34.017008 -118.449718 224 174ft 53kts
03-Aug-18 20:29 34.014283 -118.452348 117 172ft 0kts
03-Aug-18 20:30 34.013300 -118.453209 224 172ft 11kts

Navigation Log

Ident Type
Flight plan parsing failed, navigation log unavailable